Time;durP1;ratioP1;P1;durP2;ratioP2;P2;SDS_P1;SDS_P2;PMS_P1;PMS_P2;Temp;Humidity;BMP_temperature;BMP_pressure;BME280_temperature;BME280_humidity;BME280_pressure;Samples;Min_cycle;Max_cycle;Signal;HPM_P1;HPM_P2
2023/01/05 00:02:18;;;;;;;;;;;;;;;14.19;50.91;99539.38;4480211;32;34866;-84
2023/01/05 00:04:50;;;;;;;;;;;;;;;14.01;51.11;99526.25;4470058;32;34875;-87
2023/01/05 00:07:19;;;;;;;;;;;;;;;14.43;49.96;99525.53;4474636;32;34264;-82
2023/01/05 00:09:46;;;;;;;;;;;;;;;14.42;50.03;99509.88;4483010;32;33146;-90
2023/01/05 00:23:17;;;;;;;;;;;;;;;13.92;51.66;99469.75;4481670;32;34003;-93
2023/01/05 00:25:44;;;;;;;;;;;;;;;13.72;52.12;99463.59;4482616;32;35118;-93
2023/01/05 00:28:11;;;;;;;;;;;;;;;13.89;52.16;99467.13;4479665;32;34072;-91
2023/01/05 00:30:40;;;;;;;;;;;;;;;14.33;50.80;99462.06;4482846;32;33470;-90
2023/01/05 00:33:08;;;;;;;;;;;;;;;14.34;50.59;99462.91;4483212;32;34039;-92
2023/01/05 00:35:35;;;;;;;;;;;;;;;14.01;51.54;99467.16;4468750;32;34728;-81
2023/01/05 00:38:03;;;;;;;;;;;;;;;14.08;51.13;99465.44;4476302;32;34400;-83
2023/01/05 00:40:30;;;;;;;;;;;;;;;13.91;51.41;99478.44;4476162;32;34226;-89
2023/01/05 00:42:57;;;;;;;;;;;;;;;13.04;53.59;99483.09;4474994;32;33618;-85
2023/01/05 00:45:25;;;;;;;;;;;;;;;14.01;51.34;99474.09;4476121;32;34119;-81
2023/01/05 00:47:54;;;;;;;;;;;;;;;13.84;51.72;99479.25;4482460;32;34673;-90
2023/01/05 00:50:21;;;;;;;;;;;;;;;13.65;52.42;99474.84;4482938;32;33441;-81
2023/01/05 00:52:49;;;;;;;;;;;;;;;14.05;51.00;99475.84;4475407;32;35046;-87
2023/01/05 00:55:16;;;;;;;;;;;;;;;13.97;51.20;99459.31;4482819;32;34326;-80
2023/01/05 00:57:44;;;;;;;;;;;;;;;13.82;51.59;99457.53;4482870;32;34118;-90
2023/01/05 01:00:13;;;;;;;;;;;;;;;13.56;52.38;99462.59;4482646;32;33045;-90
2023/01/05 01:02:40;;;;;;;;;;;;;;;13.72;51.82;99448.81;4466345;32;35338;-88
2023/01/05 01:05:07;;;;;;;;;;;;;;;13.67;52.11;99468.75;4472995;32;34417;-92
2023/01/05 01:07:35;;;;;;;;;;;;;;;13.01;53.49;99467.44;4475660;32;34241;-94
2023/01/05 01:10:04;;;;;;;;;;;;;;;13.13;53.23;99465.78;4461625;32;33420;-90
2023/01/05 01:12:31;;;;;;;;;;;;;;;12.56;55.09;99468.78;4480737;32;33518;-81
2023/01/05 01:14:58;;;;;;;;;;;;;;;12.32;56.07;99466.81;4482502;32;34136;-86
2023/01/05 01:17:26;;;;;;;;;;;;;;;12.76;54.76;99484.56;4483255;32;33390;-90
2023/01/05 01:19:53;;;;;;;;;;;;;;;12.63;55.09;99481.84;4483767;32;33419;-89
2023/01/05 01:22:20;;;;;;;;;;;;;;;12.98;54.22;99467.41;4468467;32;34088;-91
2023/01/05 01:24:47;;;;;;;;;;;;;;;13.67;52.66;99454.84;4484107;32;34320;-89
2023/01/05 01:27:15;;;;;;;;;;;;;;;13.77;51.90;99448.81;4484459;32;33950;-91
2023/01/05 01:29:42;;;;;;;;;;;;;;;13.47;52.72;99466.03;4471909;32;34299;-88
2023/01/05 01:32:09;;;;;;;;;;;;;;;13.14;53.45;99467.56;4477137;32;34892;-91
2023/01/05 01:34:38;;;;;;;;;;;;;;;13.48;52.81;99462.56;4476236;32;35072;-94
2023/01/05 01:37:05;;;;;;;;;;;;;;;13.77;51.78;99436.66;4477716;32;33259;-93
2023/01/05 01:39:33;;;;;;;;;;;;;;;13.28;52.95;99439.00;4465125;32;33432;-88
2023/01/05 01:42:00;;;;;;;;;;;;;;;13.56;52.17;99437.47;4470305;32;35170;-90
2023/01/05 01:44:47;;;;;;;;;;;;;;;13.92;50.99;99433.25;4484258;32;35336;-92
2023/01/05 01:47:18;;;;;;;;;;;;;;;13.60;52.00;99428.78;4484520;32;34343;-93
2023/01/05 01:49:45;;;;;;;;;;;;;;;13.46;52.48;99440.00;4464155;32;33628;-85
2023/01/05 01:52:13;;;;;;;;;;;;;;;14.27;50.54;99435.09;4467922;32;33674;-82
2023/01/05 01:54:40;;;;;;;;;;;;;;;13.39;52.39;99413.91;4466535;32;33989;-89
2023/01/05 01:57:08;;;;;;;;;;;;;;;13.45;52.07;99410.47;4471837;32;34571;-83
2023/01/05 01:59:35;;;;;;;;;;;;;;;14.12;50.46;99400.28;4462653;32;33477;-90
2023/01/05 02:02:03;;;;;;;;;;;;;;;14.12;50.42;99409.84;4465348;32;34247;-93
2023/01/05 02:04:31;;;;;;;;;;;;;;;13.75;51.09;99404.53;4470104;32;33948;-90
2023/01/05 02:06:58;;;;;;;;;;;;;;;13.59;51.68;99402.72;4468641;32;34816;-91
2023/01/05 02:09:25;;;;;;;;;;;;;;;13.55;52.06;99399.22;4462225;32;34141;-93
2023/01/05 02:12:08;;;;;;;;;;;;;;;13.92;51.06;99395.91;4469756;32;33696;-82
2023/01/05 02:14:57;;;;;;;;;;;;;;;14.13;50.57;99414.22;4468684;31;35390;-86
2023/01/05 02:17:44;;;;;;;;;;;;;;;14.14;50.22;99415.06;4475609;32;34268;-83
2023/01/05 02:20:30;;;;;;;;;;;;;;;14.53;49.27;99414.28;4473467;32;33372;-83
2023/01/05 02:23:05;;;;;;;;;;;;;;;13.81;50.82;99412.34;4469211;32;33882;-82
2023/01/05 02:25:35;;;;;;;;;;;;;;;14.05;50.52;99398.56;4467985;32;35309;-88
2023/01/05 02:28:06;;;;;;;;;;;;;;;14.48;49.38;99371.66;4474470;32;34937;-92
2023/01/05 02:30:39;;;;;;;;;;;;;;;13.99;50.50;99372.47;4478217;32;34309;-83
2023/01/05 02:33:18;;;;;;;;;;;;;;;14.84;48.54;99382.09;4482188;32;34827;-88
2023/01/05 02:35:51;;;;;;;;;;;;;;;14.95;48.05;99374.25;4468282;32;34093;-82
2023/01/05 02:38:25;;;;;;;;;;;;;;;15.15;47.52;99371.59;4475943;32;34258;-84
2023/01/05 02:40:54;;;;;;;;;;;;;;;15.09;47.56;99362.03;4464088;32;33946;-87
2023/01/05 02:43:22;;;;;;;;;;;;;;;15.08;47.71;99360.31;4454253;32;35192;-83
2023/01/05 02:45:49;;;;;;;;;;;;;;;15.20;47.10;99362.03;4453802;32;35270;-92
2023/01/05 02:48:16;;;;;;;;;;;;;;;15.15;47.29;99355.06;4476283;32;33805;-82
2023/01/05 02:50:59;;;;;;;;;;;;;;;15.35;46.85;99352.41;4475924;32;33319;-87
2023/01/05 02:53:29;;;;;;;;;;;;;;;14.60;48.27;99369.06;4467765;32;34224;-92
2023/01/05 02:55:59;;;;;;;;;;;;;;;14.98;47.55;99366.41;4457067;32;34320;-89
2023/01/05 02:58:33;;;;;;;;;;;;;;;15.21;47.19;99344.59;4460876;32;35167;-85
2023/01/05 03:01:05;;;;;;;;;;;;;;;15.10;47.21;99334.19;4457045;32;33224;-91
2023/01/05 03:03:34;;;;;;;;;;;;;;;14.62;48.68;99322.97;4464235;32;33975;-82
2023/01/05 03:06:12;;;;;;;;;;;;;;;14.61;48.93;99318.62;4459092;32;34280;-93
2023/01/05 03:08:43;;;;;;;;;;;;;;;14.92;48.04;99327.25;4466082;32;34872;-92
2023/01/05 03:14:00;;;;;;;;;;;;;;;15.16;47.45;99330.69;4467898;32;34669;-80
2023/01/05 03:16:28;;;;;;;;;;;;;;;15.13;47.46;99326.34;4469432;32;34055;-81
2023/01/05 03:35:40;;;;;;;;;;;;;;;14.30;49.90;99310.78;4471202;32;34103;-92
2023/01/05 03:38:14;;;;;;;;;;;;;;;14.40;49.98;99327.31;4469650;32;35185;-93
2023/01/05 03:40:44;;;;;;;;;;;;;;;15.01;48.45;99335.09;4483743;32;34925;-84
2023/01/05 03:43:12;;;;;;;;;;;;;;;14.59;49.34;99334.28;4469892;32;33841;-83
2023/01/05 03:46:00;;;;;;;;;;;;;;;14.25;50.54;99316.88;4469310;32;33662;-82
2023/01/05 03:48:28;;;;;;;;;;;;;;;14.32;50.85;99280.38;4483562;32;33825;-91
2023/01/05 03:50:56;;;;;;;;;;;;;;;14.17;51.49;99251.69;4483440;32;34654;-82
2023/01/05 03:53:23;;;;;;;;;;;;;;;14.52;50.40;99236.03;4483852;32;33357;-82
2023/01/05 03:55:50;;;;;;;;;;;;;;;14.15;51.64;99232.56;4483595;32;34143;-82
2023/01/05 03:58:19;;;;;;;;;;;;;;;14.09;51.56;99241.25;4483628;32;34386;-83
2023/01/05 04:00:47;;;;;;;;;;;;;;;14.55;50.59;99230.81;4483754;32;34189;-82
2023/01/05 04:03:15;;;;;;;;;;;;;;;14.28;51.14;99209.94;4483775;32;34218;-88
2023/01/05 04:05:43;;;;;;;;;;;;;;;14.62;50.22;99208.16;4477089;32;34487;-85
2023/01/05 04:08:10;;;;;;;;;;;;;;;14.48;50.36;99228.19;4469761;32;35338;-90
2023/01/05 04:10:37;;;;;;;;;;;;;;;14.41;50.62;99232.53;4483189;32;34014;-83
2023/01/05 04:13:06;;;;;;;;;;;;;;;14.55;50.60;99230.81;4483287;32;33861;-92
2023/01/05 04:15:33;;;;;;;;;;;;;;;14.49;50.75;99227.31;4482745;32;34813;-89
2023/01/05 04:18:01;;;;;;;;;;;;;;;14.18;51.46;99236.91;4483551;32;35195;-82
2023/01/05 04:20:29;;;;;;;;;;;;;;;13.78;52.64;99242.97;4483377;32;34436;-91
2023/01/05 04:22:56;;;;;;;;;;;;;;;14.54;50.27;99241.22;4483589;32;34344;-84
2023/01/05 04:25:24;;;;;;;;;;;;;;;14.43;50.63;99250.78;4483167;32;34350;-82
2023/01/05 04:27:51;;;;;;;;;;;;;;;12.69;55.52;99248.66;4482937;32;35214;-93
2023/01/05 04:30:20;;;;;;;;;;;;;;;13.73;52.92;99254.25;4483349;32;34110;-93
2023/01/05 04:32:48;;;;;;;;;;;;;;;13.62;52.77;99247.28;4478577;32;33164;-84
2023/01/05 04:35:15;;;;;;;;;;;;;;;14.60;50.32;99236.88;4482559;32;34352;-92
2023/01/05 04:37:43;;;;;;;;;;;;;;;14.96;49.32;99247.19;4483462;32;34508;-88
2023/01/05 04:40:12;;;;;;;;;;;;;;;15.09;48.87;99252.38;4483215;32;35026;-82
2023/01/05 04:42:40;;;;;;;;;;;;;;;15.05;48.93;99240.22;4482848;32;34105;-84
2023/01/05 04:45:07;;;;;;;;;;;;;;;15.05;48.78;99226.28;4465936;32;33605;-94
2023/01/05 04:47:35;;;;;;;;;;;;;;;14.75;49.21;99216.84;4459612;32;34423;-89
2023/01/05 04:50:03;;;;;;;;;;;;;;;13.91;51.20;99217.81;4461844;32;34331;-83
2023/01/05 04:52:31;;;;;;;;;;;;;;;14.42;50.21;99210.78;4466536;32;32712;-94
2023/01/05 04:54:58;;;;;;;;;;;;;;;13.92;51.24;99222.13;4466311;32;35279;-82
2023/01/05 04:57:27;;;;;;;;;;;;;;;13.69;52.39;99226.47;4466594;32;34182;-81
2023/01/05 04:59:54;;;;;;;;;;;;;;;14.03;51.52;99223.00;4446576;32;35019;-81
2023/01/05 05:02:23;;;;;;;;;;;;;;;13.81;52.12;99211.72;4452253;32;34324;-88
2023/01/05 05:04:51;;;;;;;;;;;;;;;13.43;53.28;99222.09;4450022;32;34078;-82
2023/01/05 05:07:20;;;;;;;;;;;;;;;13.31;53.67;99215.13;4436016;32;34453;-82
2023/01/05 05:09:47;;;;;;;;;;;;;;;13.54;52.83;99222.97;4436194;32;33975;-90
2023/01/05 05:12:19;;;;;;;;;;;;;;;13.37;53.35;99214.25;4444327;32;33973;-84
2023/01/05 05:14:48;;;;;;;;;;;;;;;13.23;53.86;99213.34;4451603;32;33915;-83
2023/01/05 05:17:16;;;;;;;;;;;;;;;12.80;55.12;99220.97;4451178;32;34972;-91
2023/01/05 05:19:43;;;;;;;;;;;;;;;12.99;54.68;99204.56;4452136;32;34360;-89
2023/01/05 05:22:11;;;;;;;;;;;;;;;13.13;54.42;99210.69;4451423;32;33300;-93
2023/01/05 05:24:38;;;;;;;;;;;;;;;12.79;55.39;99212.28;4450659;32;34241;-94
2023/01/05 05:27:06;;;;;;;;;;;;;;;11.97;58.06;99202.28;4466016;32;34261;-85
2023/01/05 05:29:34;;;;;;;;;;;;;;;11.54;58.86;99201.84;4461320;32;34509;-85
2023/01/05 05:32:01;;;;;;;;;;;;;;;12.05;58.03;99195.41;4451312;32;33752;-90
2023/01/05 05:34:28;;;;;;;;;;;;;;;11.57;59.46;99203.63;4456196;32;34159;-90
2023/01/05 05:36:56;;;;;;;;;;;;;;;11.73;58.96;99191.63;4463344;32;33732;-81
2023/01/05 05:39:23;;;;;;;;;;;;;;;11.90;57.97;99197.88;4456051;32;34573;-88
2023/01/05 05:41:50;;;;;;;;;;;;;;;12.28;57.08;99190.34;4456251;32;32813;-90
2023/01/05 05:44:18;;;;;;;;;;;;;;;11.29;59.82;99198.16;4459286;32;33867;-81
2023/01/05 05:46:45;;;;;;;;;;;;;;;11.47;59.28;99202.66;4468156;32;34051;-81
2023/01/05 05:49:12;;;;;;;;;;;;;;;11.73;58.50;99189.03;4468738;32;34060;-82
2023/01/05 05:51:40;;;;;;;;;;;;;;;11.45;59.25;99194.00;4468559;32;34364;-89
2023/01/05 05:54:07;;;;;;;;;;;;;;;11.66;58.28;99193.31;4472408;32;33798;-81
2023/01/05 05:56:34;;;;;;;;;;;;;;;11.72;58.14;99172.59;4466528;32;34105;-83
2023/01/05 05:59:02;;;;;;;;;;;;;;;12.08;57.45;99179.81;4452582;32;33549;-93
2023/01/05 06:01:29;;;;;;;;;;;;;;;12.60;55.71;99177.50;4473082;32;33028;-92
2023/01/05 06:03:57;;;;;;;;;;;;;;;13.37;53.00;99172.59;4481714;32;33863;-81
2023/01/05 06:06:24;;;;;;;;;;;;;;;13.05;53.93;99160.34;4480128;32;34621;-85
2023/01/05 06:08:51;;;;;;;;;;;;;;;13.75;51.52;99184.78;4470313;32;33907;-84
2023/01/05 06:11:18;;;;;;;;;;;;;;;12.93;53.34;99201.09;4478403;32;34012;-82
2023/01/05 06:13:47;;;;;;;;;;;;;;;13.55;52.06;99203.00;4479482;32;34211;-83
2023/01/05 06:16:14;;;;;;;;;;;;;;;13.35;52.38;99201.22;4482113;32;34335;-93
2023/01/05 06:18:42;;;;;;;;;;;;;;;13.08;53.09;99199.41;4471899;31;34349;-93
2023/01/05 06:21:09;;;;;;;;;;;;;;;13.88;50.91;99192.59;4476740;32;33753;-89
2023/01/05 06:23:36;;;;;;;;;;;;;;;14.10;49.69;99190.00;4483826;32;34997;-92
2023/01/05 06:26:04;;;;;;;;;;;;;;;13.59;50.50;99189.97;4484158;32;34211;-91
2023/01/05 06:28:31;;;;;;;;;;;;;;;13.31;51.24;99181.25;4485981;32;34235;-91
2023/01/05 06:30:58;;;;;;;;;;;;;;;13.74;50.33;99183.03;4481881;32;34142;-89
2023/01/05 06:33:26;;;;;;;;;;;;;;;14.03;49.25;99162.19;4482335;32;33766;-92
2023/01/05 06:35:53;;;;;;;;;;;;;;;13.82;49.27;99155.25;4475624;31;35379;-88
2023/01/05 06:38:20;;;;;;;;;;;;;;;13.59;49.27;99169.13;4470668;32;34964;-86
2023/01/05 06:40:48;;;;;;;;;;;;;;;13.94;48.51;99151.75;4474295;32;32954;-94
2023/01/05 06:43:15;;;;;;;;;;;;;;;14.28;47.52;99136.91;4483423;32;34295;-92
2023/01/05 06:45:43;;;;;;;;;;;;;;;14.39;47.24;99147.31;4483676;32;35112;-82
2023/01/05 06:48:10;;;;;;;;;;;;;;;14.62;46.41;99134.22;4483355;32;34116;-90
2023/01/05 06:50:37;;;;;;;;;;;;;;;14.63;46.28;99130.78;4484111;32;33497;-90
2023/01/05 06:53:04;;;;;;;;;;;;;;;14.71;45.90;99123.78;4483845;32;34212;-82
2023/01/05 06:55:32;;;;;;;;;;;;;;;14.55;45.98;99118.63;4484126;32;35288;-88
2023/01/05 06:57:59;;;;;;;;;;;;;;;14.02;47.18;99111.81;4483250;32;34309;-84
2023/01/05 07:00:27;;;;;;;;;;;;;;;14.18;47.00;99124.78;4480847;32;33503;-89
2023/01/05 07:02:55;;;;;;;;;;;;;;;14.29;46.91;99120.44;4477423;32;34123;-87
2023/01/05 07:05:23;;;;;;;;;;;;;;;14.32;47.01;99112.59;4469534;32;34498;-85
2023/01/05 07:07:50;;;;;;;;;;;;;;;14.39;46.81;99111.69;4469533;32;34389;-89
2023/01/05 07:10:18;;;;;;;;;;;;;;;14.34;46.88;99123.87;4483708;32;34359;-81
2023/01/05 07:12:45;;;;;;;;;;;;;;;14.19;47.30;99109.13;4468975;32;34460;-82
2023/01/05 07:15:12;;;;;;;;;;;;;;;14.38;47.05;99089.09;4482703;32;34497;-88
2023/01/05 07:17:40;;;;;;;;;;;;;;;14.47;46.78;99102.09;4468117;32;33496;-81
2023/01/05 07:20:07;;;;;;;;;;;;;;;14.59;46.72;99089.03;4476425;32;34055;-87
2023/01/05 07:22:34;;;;;;;;;;;;;;;14.41;46.96;99104.72;4480264;32;34872;-90
2023/01/05 07:25:02;;;;;;;;;;;;;;;14.15;47.53;99099.59;4483696;32;34313;-82
2023/01/05 07:27:29;;;;;;;;;;;;;;;14.57;46.94;99116.00;4483484;32;34865;-88
2023/01/05 07:29:56;;;;;;;;;;;;;;;14.65;46.94;99129.00;4482991;32;34360;-89
2023/01/05 07:32:24;;;;;;;;;;;;;;;14.16;48.60;99122.19;4483673;32;34921;-84
2023/01/05 07:34:51;;;;;;;;;;;;;;;14.27;48.28;99117.81;4483592;32;33216;-89
2023/01/05 07:37:23;;;;;;;;;;;;;;;14.23;48.93;99131.72;4483457;32;33881;-85
2023/01/05 07:39:52;;;;;;;;;;;;;;;14.14;49.42;99113.50;4472392;32;33551;-82
2023/01/05 07:42:20;;;;;;;;;;;;;;;14.35;48.91;99104.75;4475489;32;34033;-86
2023/01/05 07:44:47;;;;;;;;;;;;;;;14.57;48.33;99122.06;4476652;32;35161;-88
2023/01/05 07:47:14;;;;;;;;;;;;;;;13.66;50.75;99093.59;4469114;32;34878;-89
2023/01/05 07:49:42;;;;;;;;;;;;;;;13.72;50.77;99091.00;4476241;32;34082;-90
2023/01/05 07:52:09;;;;;;;;;;;;;;;14.07;49.90;99115.25;4483408;32;34027;-90
2023/01/05 07:54:36;;;;;;;;;;;;;;;13.93;50.18;99100.50;4483540;32;34541;-84
2023/01/05 07:57:03;;;;;;;;;;;;;;;13.30;51.92;99101.44;4478290;32;34058;-88
2023/01/05 07:59:30;;;;;;;;;;;;;;;13.22;52.75;99081.41;4478826;32;33776;-90
2023/01/05 08:01:58;;;;;;;;;;;;;;;13.70;51.40;99072.75;4481806;32;33916;-89
2023/01/05 08:04:26;;;;;;;;;;;;;;;13.38;52.32;99106.63;4478264;32;35142;-91
2023/01/05 08:06:55;;;;;;;;;;;;;;;12.17;55.86;99114.91;4482422;32;34111;-90
2023/01/05 08:12:08;;;;;;;;;;;;;;;13.86;51.85;99110.06;4473976;32;34238;-83
2023/01/05 08:14:37;;;;;;;;;;;;;;;13.33;53.52;99103.13;4474018;32;34425;-81
2023/01/05 08:17:04;;;;;;;;;;;;;;;13.87;52.26;99099.66;4480180;32;33633;-90
2023/01/05 08:19:32;;;;;;;;;;;;;;;14.27;51.30;99088.25;4476158;32;33262;-82
2023/01/05 08:21:59;;;;;;;;;;;;;;;14.36;51.22;99076.06;4481631;32;34270;-82
2023/01/05 08:24:26;;;;;;;;;;;;;;;14.39;51.14;99072.56;4472540;32;34476;-86
2023/01/05 08:26:54;;;;;;;;;;;;;;;14.36;51.48;99077.81;4466364;32;34216;-81
2023/01/05 08:29:21;;;;;;;;;;;;;;;14.42;51.40;99077.75;4480781;32;33549;-80
2023/01/05 08:31:48;;;;;;;;;;;;;;;14.30;52.16;99083.03;4468576;32;32767;-86
2023/01/05 08:34:16;;;;;;;;;;;;;;;13.72;54.09;99091.88;4482543;32;34483;-84
2023/01/05 08:36:43;;;;;;;;;;;;;;;13.39;55.01;99085.78;4474432;32;33855;-87
2023/01/05 08:39:10;;;;;;;;;;;;;;;12.92;55.48;99077.91;4477994;32;32841;-81
2023/01/05 08:41:38;;;;;;;;;;;;;;;13.86;53.48;99078.78;4471184;32;34104;-88
2023/01/05 08:44:07;;;;;;;;;;;;;;;13.80;53.62;99084.91;4440528;32;884785;-81
2023/01/05 08:46:34;;;;;;;;;;;;;;;13.03;55.50;99084.00;4465578;32;34094;-87
2023/01/05 08:49:03;;;;;;;;;;;;;;;13.04;55.78;99079.66;4467348;32;33275;-88
2023/01/05 08:51:30;;;;;;;;;;;;;;;13.30;54.82;99074.53;4481161;32;34372;-88
2023/01/05 08:53:57;;;;;;;;;;;;;;;13.11;55.65;99113.53;4481322;32;35260;-85
2023/01/05 08:56:25;;;;;;;;;;;;;;;12.92;56.04;99096.13;4479695;32;34017;-88
2023/01/05 08:58:57;;;;;;;;;;;;;;;12.60;57.40;99083.88;4468075;32;34472;-86
2023/01/05 09:01:25;;;;;;;;;;;;;;;13.06;55.83;99086.59;4477511;32;35002;-80
2023/01/05 09:03:52;;;;;;;;;;;;;;;13.51;54.47;99087.53;4457944;32;35329;-87
2023/01/05 09:06:19;;;;;;;;;;;;;;;13.57;54.35;99089.28;4477564;32;34175;-84
2023/01/05 09:08:47;;;;;;;;;;;;;;;13.48;54.38;99087.53;4481651;32;33410;-88
2023/01/05 09:11:16;;;;;;;;;;;;;;;13.04;55.71;99095.28;4465699;32;34326;-82
2023/01/05 09:13:44;;;;;;;;;;;;;;;13.41;54.51;99098.84;4465829;32;34420;-85
2023/01/05 09:16:12;;;;;;;;;;;;;;;11.91;58.47;99106.97;4467742;32;33898;-84
2023/01/05 09:18:40;;;;;;;;;;;;;;;12.41;57.85;99097.69;4468415;32;33474;-88
2023/01/05 09:21:08;;;;;;;;;;;;;;;12.23;59.01;99098.47;4467814;32;34990;-82
2023/01/05 09:23:36;;;;;;;;;;;;;;;12.43;58.46;99116.78;4477862;32;35367;-87
2023/01/05 09:26:03;;;;;;;;;;;;;;;12.36;58.74;99107.22;4476044;32;34754;-85
2023/01/05 09:28:31;;;;;;;;;;;;;;;12.47;58.60;99112.47;4465533;32;34134;-89
2023/01/05 09:30:58;;;;;;;;;;;;;;;12.82;57.23;99102.16;4451998;32;33917;-82
2023/01/05 09:33:25;;;;;;;;;;;;;;;12.65;57.68;99092.59;4478135;32;33979;-87
2023/01/05 09:35:56;;;;;;;;;;;;;;;11.75;60.67;99075.66;4473942;32;33930;-92
2023/01/05 09:38:23;;;;;;;;;;;;;;;12.00;60.24;99068.91;4460774;32;34003;-87
2023/01/05 09:40:52;;;;;;;;;;;;;;;12.59;58.92;99069.16;4479101;32;34224;-86
2023/01/05 09:43:32;;;;;;;;;;;;;;;13.20;57.16;99064.94;4461630;32;34387;-87
2023/01/05 09:45:59;;;;;;;;;;;;;;;11.71;61.67;99066.13;4467097;32;34625;-86
2023/01/05 09:48:28;;;;;;;;;;;;;;;11.43;62.57;99056.37;4483995;32;33495;-88
2023/01/05 09:50:55;;;;;;;;;;;;;;;11.52;62.62;99055.59;4470110;32;35084;-88
2023/01/05 09:53:26;;;;;;;;;;;;;;;12.02;61.15;99052.47;4451666;32;34483;-82
2023/01/05 09:55:53;;;;;;;;;;;;;;;12.95;58.45;99048.41;4454579;32;34757;-84
2023/01/05 09:58:22;;;;;;;;;;;;;;;12.82;58.84;99047.53;4469127;32;33367;-87
2023/01/05 10:01:01;;;;;;;;;;;;;;;12.22;60.19;99043.88;4468682;32;34066;-85
2023/01/05 10:03:29;;;;;;;;;;;;;;;12.56;59.66;99044.88;4454948;32;34282;-87
2023/01/05 10:06:17;;;;;;;;;;;;;;;12.86;59.16;99033.66;4468955;32;34338;-87
2023/01/05 10:08:46;;;;;;;;;;;;;;;12.90;58.78;99025.00;4467336;32;33349;-83
2023/01/05 10:14:08;;;;;;;;;;;;;;;14.14;56.22;99017.03;4468308;32;33583;-87
2023/01/05 10:16:35;;;;;;;;;;;;;;;13.73;56.01;99014.56;4468436;32;33951;-90
2023/01/05 10:19:03;;;;;;;;;;;;;;;13.85;56.09;99018.00;4469865;32;34272;-88
2023/01/05 10:21:45;;;;;;;;;;;;;;;13.21;57.49;99014.59;4472581;32;33696;-96
2023/01/05 10:24:21;;;;;;;;;;;;;;;13.31;57.63;99011.16;4468068;32;34140;-91
2023/01/05 10:27:00;;;;;;;;;;;;;;;13.03;58.90;99011.16;4466127;32;34507;-89
2023/01/05 10:29:48;;;;;;;;;;;;;;;13.08;58.42;99035.44;4475871;32;33651;-87
2023/01/05 10:32:21;;;;;;;;;;;;;;;14.50;54.99;99038.63;4455949;32;33917;-83
2023/01/05 10:34:56;;;;;;;;;;;;;;;13.65;58.11;99031.97;4468613;32;34000;-87
2023/01/05 10:37:30;;;;;;;;;;;;;;;13.57;58.42;99025.03;4454322;32;34238;-89
2023/01/05 10:39:57;;;;;;;;;;;;;;;14.70;55.62;99043.72;4469120;32;33223;-89
2023/01/05 10:42:44;;;;;;;;;;;;;;;13.80;58.75;99047.56;4468247;32;34029;-89
2023/01/05 10:45:12;;;;;;;;;;;;;;;13.86;58.04;99030.19;4467864;32;34247;-92
2023/01/05 10:47:39;;;;;;;;;;;;;;;13.07;60.49;99038.91;4454027;32;34135;-91
2023/01/05 10:50:24;;;;;;;;;;;;;;;13.09;60.24;99031.94;4467500;32;33305;-85
2023/01/05 10:52:52;;;;;;;;;;;;;;;13.85;57.66;99040.59;4466622;32;34896;-92
2023/01/05 10:55:19;;;;;;;;;;;;;;;13.35;58.78;99031.13;4462908;32;34139;-83
2023/01/05 10:57:46;;;;;;;;;;;;;;;13.98;57.43;99029.28;4468920;31;34978;-90
2023/01/05 11:00:16;;;;;;;;;;;;;;;13.67;58.44;99036.28;4483520;32;33230;-87
2023/01/05 11:02:50;;;;;;;;;;;;;;;12.38;62.65;99035.28;4470960;32;34008;-89
2023/01/05 11:05:17;;;;;;;;;;;;;;;12.79;61.84;99034.53;4479094;32;35071;-85
2023/01/05 11:07:55;;;;;;;;;;;;;;;13.74;59.11;99047.56;4482817;32;34745;-84
2023/01/05 11:10:35;;;;;;;;;;;;;;;13.91;58.93;99066.66;4482508;32;34085;-94
2023/01/05 11:13:03;;;;;;;;;;;;;;;14.20;58.21;99043.06;4465849;32;34193;-91
2023/01/05 11:15:31;;;;;;;;;;;;;;;13.33;60.82;99040.66;4473249;32;34588;-90
2023/01/05 11:17:58;;;;;;;;;;;;;;;13.85;59.78;99057.09;4457699;32;34881;-89
2023/01/05 11:20:26;;;;;;;;;;;;;;;13.82;60.18;99056.22;4467823;32;34158;-89
2023/01/05 11:22:53;;;;;;;;;;;;;;;12.68;64.76;99067.44;4465626;32;34247;-90
2023/01/05 11:25:31;;;;;;;;;;;;;;;13.20;63.26;99072.75;4468890;32;34162;-88
2023/01/05 11:28:17;;;;;;;;;;;;;;;13.32;62.83;99075.38;4479468;32;34237;-88
2023/01/05 11:31:00;;;;;;;;;;;;;;;14.22;59.82;99077.84;4473546;32;34195;-89
2023/01/05 11:33:28;;;;;;;;;;;;;;;14.08;60.13;99079.63;4465630;32;35092;-86
2023/01/05 11:35:56;;;;;;;;;;;;;;;13.29;62.83;99085.78;4475740;32;34337;-83
2023/01/05 11:38:24;;;;;;;;;;;;;;;13.23;63.46;99101.37;4482822;32;34896;-92
2023/01/05 11:40:55;;;;;;;;;;;;;;;12.73;65.23;99113.44;4454164;32;33727;-90
2023/01/05 11:43:22;;;;;;;;;;;;;;;12.48;66.01;99125.47;4467415;32;34516;-86
2023/01/05 11:45:51;;;;;;;;;;;;;;;13.34;62.97;99120.53;4466305;32;34496;-90
2023/01/05 11:48:19;;;;;;;;;;;;;;;13.03;63.64;99117.84;4454564;32;35051;-89
2023/01/05 11:50:49;;;;;;;;;;;;;;;12.63;65.17;99112.50;4445867;32;34048;-87
2023/01/05 11:53:31;;;;;;;;;;;;;;;12.77;64.57;99114.31;4450918;32;33676;-89
2023/01/05 11:56:02;;;;;;;;;;;;;;;13.17;63.88;99111.78;4450391;32;35184;-85
2023/01/05 11:58:32;;;;;;;;;;;;;;;14.01;60.88;99099.63;4451198;32;34399;-89
2023/01/05 12:01:16;;;;;;;;;;;;;;;12.75;64.71;99093.47;4447322;32;34183;-89
2023/01/05 12:04:00;;;;;;;;;;;;;;;12.72;65.23;99093.47;4450248;32;33684;-84
2023/01/05 12:06:33;;;;;;;;;;;;;;;12.56;65.66;99094.28;4452243;32;35411;-93
2023/01/05 12:09:20;;;;;;;;;;;;;;;12.35;66.01;99108.94;4451063;32;34705;-83
2023/01/05 12:11:50;;;;;;;;;;;;;;;12.56;65.15;99109.87;4446660;32;34090;-84
2023/01/05 12:14:35;;;;;;;;;;;;;;;12.86;63.72;99116.94;4442375;32;34189;-90
2023/01/05 12:17:05;;;;;;;;;;;;;;;12.81;63.28;99121.25;4442341;32;34873;-89
2023/01/05 12:19:41;;;;;;;;;;;;;;;13.20;61.74;99127.41;4449672;32;35451;-88
2023/01/05 12:22:17;;;;;;;;;;;;;;;13.78;60.11;99111.81;4448986;32;34022;-83
2023/01/05 12:24:47;;;;;;;;;;;;;;;13.32;61.02;99114.44;4449825;32;33448;-82
2023/01/05 12:27:18;;;;;;;;;;;;;;;12.94;62.31;99124.75;4435660;32;33819;-90
2023/01/05 12:29:46;;;;;;;;;;;;;;;13.06;62.46;99125.63;4451909;32;33853;-83
2023/01/05 12:32:52;;;;;;;;;;;;;;;13.42;61.14;99134.41;4448402;32;33395;-89
2023/01/05 12:35:52;;;;;;;;;;;;;;;12.56;63.72;99122.88;4451290;32;34186;-86
2023/01/05 12:38:29;;;;;;;;;;;;;;;12.83;63.12;99103.91;4448840;32;34056;-88
2023/01/05 12:41:06;;;;;;;;;;;;;;;12.45;64.49;99117.63;4446048;32;33973;-88
2023/01/05 12:43:52;;;;;;;;;;;;;;;12.39;64.99;99115.91;4441903;32;33294;-90
2023/01/05 12:46:25;;;;;;;;;;;;;;;12.96;62.91;99113.50;4480587;32;34320;-88
2023/01/05 12:48:54;;;;;;;;;;;;;;;12.14;66.13;99096.69;4468119;32;33944;-90
2023/01/05 12:51:35;;;;;;;;;;;;;;;12.13;65.26;99094.97;4481204;32;33860;-84
2023/01/05 12:54:05;;;;;;;;;;;;;;;12.08;66.64;99093.19;4460758;32;34016;-88
2023/01/05 12:56:37;;;;;;;;;;;;;;;13.02;62.71;99084.84;4467139;32;34058;-87
2023/01/05 12:59:13;;;;;;;;;;;;;;;13.73;59.95;99056.25;4456977;32;34422;-87
2023/01/05 13:01:53;;;;;;;;;;;;;;;13.00;61.77;99068.38;4476229;32;34501;-87
2023/01/05 13:04:33;;;;;;;;;;;;;;;12.88;62.22;99057.97;4467713;32;33588;-81
2023/01/05 13:07:31;;;;;;;;;;;;;;;13.15;62.05;99060.59;4476733;32;34067;-87
2023/01/05 13:09:59;;;;;;;;;;;;;;;13.58;60.51;99049.31;4458012;32;34339;-85
2023/01/05 13:12:30;;;;;;;;;;;;;;;13.08;62.12;99048.44;4462489;32;34064;-88
2023/01/05 13:15:17;;;;;;;;;;;;;;;13.43;60.73;99031.97;4469547;32;33560;-89
2023/01/05 13:17:46;;;;;;;;;;;;;;;13.28;61.73;99034.59;4477840;32;35039;-90
2023/01/05 13:20:21;;;;;;;;;;;;;;;12.20;64.72;99053.41;4461835;32;34543;-82
2023/01/05 13:22:48;;;;;;;;;;;;;;;13.14;61.68;99045.84;4471667;32;34189;-83
2023/01/05 13:25:15;;;;;;;;;;;;;;;12.87;62.01;99051.88;4470130;32;33173;-85
2023/01/05 13:27:42;;;;;;;;;;;;;;;12.59;63.89;99055.28;4472303;32;33539;-83
2023/01/05 13:30:23;;;;;;;;;;;;;;;12.82;63.10;99063.16;4479897;32;35068;-83
2023/01/05 13:33:04;;;;;;;;;;;;;;;12.30;64.98;99052.59;4470725;32;34976;-82
2023/01/05 13:35:40;;;;;;;;;;;;;;;13.00;61.92;99050.19;4464577;32;32681;-81
2023/01/05 13:38:26;;;;;;;;;;;;;;;12.67;63.43;99053.56;4473056;32;34024;-88
2023/01/05 13:41:15;;;;;;;;;;;;;;;13.91;59.43;99044.94;4474833;32;34485;-83